URKA Airport Information

Runway Information
Runway 04 Length 8202 ft width 138 ft
Elevation 137 ft Threshold 0 ft Heading 42
Runway 22 Length 8202 ft Width 138 ft
Elevation 174 ft Threshold 0 ft Heading 222
Airport Frequencies
Type APP Name ANAPA APP Frequency 118.7 MHZ
Type TWR Name ANAPA KRUG Frequency 119.8 MHZ
Airport Navaids
Type NDB Name Anapa Frequency 443 KHZ
Type NDB Name Anapa Frequency 443 KHZ
Airport Weather Information & NOTAM
ADDS - METARS form results

(1043 UTC 22 January 2022)
Data provider http://aviationweather.gov/metar/data/
 
METAR text: URKA 221030Z 10002MPS CAVOK 00/M03 Q1014 R04/690337 TEMPO 1000 SHSN SCT004 BKN016CB RMK QFE756/1009
Conditions at: URKA (ANAPA/VITIAZEVO , RU) observed 1030 UTC 22 January 2022
Temperature: 0.0°C (32°F)
Dewpoint: -3.0°C (27°F) [RH = 80%]
Pressure (altimeter): 29.94 inches Hg (1014.0 mb)
Winds: from the E (100 degrees) at 5 MPH (4 knots; 2.1 m/s)
Visibility: 6 or more miles (10+ km)
Ceiling: ceiling and visibility are OK
Clouds: unknown
Weather: no significant weather observed at this time

METAR text: URKA 221000Z VRB01MPS CAVOK 00/M04 Q1014 R04/690337 TEMPO 0500 +SHSN BKN003 BKN016CB RMK QFE756/1009
Conditions at: URKA (ANAPA/VITIAZEVO , RU) observed 1000 UTC 22 January 2022
Temperature: 0.0°C (32°F)
Dewpoint: -4.0°C (25°F) [RH = 74%]
Pressure (altimeter): 29.94 inches Hg (1014.0 mb)
Winds: variable direction winds at 2 MPH (2 knots; 1.0 m/s)
Visibility: 6 or more miles (10+ km)
Ceiling: ceiling and visibility are OK
Clouds: unknown
Weather: no significant weather observed at this time

Forecast for: URKA (ANAPA/VITIAZEVO , RU)
Text: TAF URKA 220756Z 2209/2309 09003G08MPS 6000 -SHSN BKN016CB
Forecast period: 0900 to 1700 UTC 22 January 2022
Forecast type: FROM: standard forecast or significant change
Winds: from the E (90 degrees) at 7 MPH (6 knots; 3.1 m/s)
gusting to 18 MPH (16 knots; 8.2 m/s)
Visibility: 4 miles (6 km)
Ceiling: 1600 feet AGL
Clouds: broken clouds at 1600 feet AGL
Weather: -SHSN  (light snow showers)
Text: BECMG 2217/2219 04007G15MPS
Forecast period: 1700 UTC 22 January 2022 to 0900 UTC 23 January 2022
Forecast type: BECOMING: Conditions expected to become as follows by 1900 UTC 22 January 2022
Winds: from the NE (40 degrees) at 16 MPH (14 knots; 7.2 m/s)
gusting to 33 MPH (29 knots; 14.9 m/s)
Visibility: 4 miles (6 km)
Ceiling: 1600 feet AGL
Clouds: broken clouds at 1600 feet AGL
Weather: -SHSN  (light snow showers)
Text: TEMPO 2219/2309 1000 SHSN BKN004 BKN016CB
Forecast period: 1900 UTC 22 January 2022 to 0900 UTC 23 January 2022
Forecast type: TEMPORARY: The following changes expected for less than half the time period
Visibility: 0.62 miles (1.00 km)
Ceiling: 400 feet AGL
Clouds: broken clouds at 400 feet AGL
broken clouds at 1600 feet AGL
Weather: SHSN  (snow showers)